Time;durP1;ratioP1;P1;durP2;ratioP2;P2;SDS_P1;SDS_P2;PMS_P1;PMS_P2;Temp;Humidity;BMP_temperature;BMP_pressure;BME280_temperature;BME280_humidity;BME280_pressure;Samples;Min_cycle;Max_cycle;Signal;HPM_P1;HPM_P2
2022/05/05 00:02:04;;;;;;;;;14.67;9.67;;;;;16.87;51.44;101645.88;5017156;28;45816;-70
2022/05/05 00:04:29;;;;;;;;;14.33;14.33;;;;;16.75;51.48;101617.63;5017196;28;45570;-69
2022/05/05 00:06:54;;;;;;;;;16.00;15.00;;;;;16.92;51.75;101650.75;5017348;28;45595;-70
2022/05/05 00:09:20;;;;;;;;;15.67;14.00;;;;;16.91;51.33;101651.75;5017532;28;45475;-69
2022/05/05 00:14:32;;;;;;;;;19.33;16.67;;;;;16.77;51.13;101631.72;5017583;28;45535;-71
2022/05/05 00:17:03;;;;;;;;;17.00;16.67;;;;;16.89;51.37;101651.06;5017729;28;45464;-69
2022/05/05 00:19:30;;;;;;;;;18.00;16.00;;;;;16.90;51.71;101658.13;5000523;28;45368;-69
2022/05/05 00:21:56;;;;;;;;;14.33;13.67;;;;;16.84;51.64;101653.41;4979470;28;47537;-70
2022/05/05 00:24:25;;;;;;;;;13.00;13.00;;;;;16.79;51.74;101647.66;5006802;28;45555;-71
2022/05/05 00:26:50;;;;;;;;;15.33;15.33;;;;;16.70;51.66;101644.13;5015458;28;45693;-69
2022/05/05 00:29:16;;;;;;;;;13.00;13.00;;;;;16.28;51.89;101580.50;5015857;28;45423;-68
2022/05/05 00:31:42;;;;;;;;;17.00;14.33;;;;;16.47;51.61;101619.66;5015896;28;45438;-71
2022/05/05 00:34:08;;;;;;;;;12.00;11.00;;;;;16.54;52.15;101638.66;4997352;28;45390;-72
2022/05/05 00:36:34;;;;;;;;;10.33;10.00;;;;;14.91;52.35;101381.16;5015662;28;45246;-69
2022/05/05 00:38:59;;;;;;;;;17.00;14.67;;;;;16.50;52.82;101646.19;4998407;28;45618;-69
2022/05/05 00:41:25;;;;;;;;;17.00;15.00;;;;;16.34;52.38;101621.94;5015581;28;45993;-70
2022/05/05 00:43:53;;;;;;;;;17.00;12.67;;;;;16.30;52.86;101628.66;5015323;28;45551;-70
2022/05/05 00:46:18;;;;;;;;;13.00;12.00;;;;;16.39;53.00;101638.41;5015866;28;45285;-70
2022/05/05 00:48:44;;;;;;;;;11.00;9.67;;;;;16.32;52.30;101634.69;5015332;28;45240;-70
2022/05/05 00:51:10;;;;;;;;;13.00;12.33;;;;;16.31;52.47;101649.09;5015301;28;46220;-69
2022/05/05 00:53:35;;;;;;;;;12.67;10.67;;;;;15.98;52.95;101605.97;5015538;28;45539;-70
2022/05/05 00:56:14;;;;;;;;;7.33;7.33;;;;;16.24;52.82;101656.97;4997476;28;45459;-69
2022/05/05 00:58:42;;;;;;;;;14.67;12.00;;;;;16.16;52.94;101640.78;5015547;28;45354;-71
2022/05/05 01:01:09;;;;;;;;;9.00;8.67;;;;;16.05;52.96;101631.19;4997637;28;48689;-69
2022/05/05 01:03:35;;;;;;;;;15.00;12.33;;;;;16.18;53.28;101664.78;5011364;28;45523;-70
2022/05/05 01:06:05;;;;;;;;;16.67;14.33;;;;;16.08;53.23;101657.69;5014716;28;45439;-70
2022/05/05 01:08:35;;;;;;;;;16.33;15.33;;;;;16.02;53.07;101650.28;5015584;28;45603;-69
2022/05/05 01:11:00;;;;;;;;;13.67;13.33;;;;;15.97;52.78;101636.47;4997286;28;48586;-69
2022/05/05 01:13:27;;;;;;;;;14.67;11.67;;;;;15.75;53.25;101605.66;5014575;28;45302;-72
2022/05/05 01:15:54;;;;;;;;;13.33;13.33;;;;;16.11;53.21;101668.09;5015418;28;45489;-70
2022/05/05 01:18:19;;;;;;;;;12.00;12.00;;;;;16.13;52.90;101660.75;5013190;28;45462;-70
2022/05/05 01:20:47;;;;;;;;;13.33;13.00;;;;;15.97;52.48;101636.47;5015078;28;45625;-71
2022/05/05 01:23:14;;;;;;;;;14.67;9.67;;;;;16.13;52.42;101655.38;4954758;28;1235336;-69
2022/05/05 01:28:24;;;;;;;;;9.67;9.67;;;;;16.17;52.32;101657.72;5016593;28;45223;-70
2022/05/05 01:30:50;;;;;;;;;13.00;11.33;;;;;15.98;51.69;101635.47;5016282;28;46586;-69
2022/05/05 01:33:21;;;;;;;;;11.00;8.67;;;;;16.07;52.47;101669.44;4998385;28;45573;-70
2022/05/05 01:35:49;;;;;;;;;13.33;10.00;;;;;15.82;52.82;101633.56;5016200;28;45396;-69
2022/05/05 01:38:17;;;;;;;;;19.67;17.33;;;;;15.94;52.42;101657.41;5016537;28;45439;-69
2022/05/05 01:40:46;;;;;;;;;6.33;4.67;;;;;15.75;53.08;101632.47;5016089;28;45199;-69
2022/05/05 01:43:16;;;;;;;;;8.67;8.00;;;;;15.86;52.72;101655.53;5015703;28;45357;-68
2022/05/05 01:45:43;;;;;;;;;8.33;8.00;;;;;15.85;52.91;101655.69;5016369;28;45475;-70
2022/05/05 01:48:09;;;;;;;;;7.00;7.00;;;;;15.30;53.20;101567.44;5016764;28;45376;-69
2022/05/05 01:50:36;;;;;;;;;10.33;8.67;;;;;15.85;53.02;101658.38;5015847;28;46657;-71
2022/05/05 01:53:02;;;;;;;;;8.00;8.00;;;;;15.41;53.24;101602.84;4997931;28;45901;-69
2022/05/05 01:55:30;;;;;;;;;10.33;10.00;;;;;15.79;52.94;101659.81;5016140;28;45550;-69
2022/05/05 01:57:55;;;;;;;;;13.00;9.67;;;;;15.40;52.80;101595.81;5009048;28;45625;-71
2022/05/05 02:00:21;;;;;;;;;8.67;8.67;;;;;15.65;53.03;101647.81;4995961;28;45319;-69
2022/05/05 02:02:46;;;;;;;;;12.67;10.33;;;;;15.33;53.04;101594.75;4996049;28;45287;-68
2022/05/05 02:05:13;;;;;;;;;7.33;7.33;;;;;15.52;52.92;101636.63;4996048;28;45269;-69
2022/05/05 02:07:40;;;;;;;;;10.00;8.33;;;;;15.72;53.20;101664.97;4980343;28;45420;-70
2022/05/05 02:10:08;;;;;;;;;11.67;10.00;;;;;15.71;52.95;101675.84;4998213;28;47050;-71
2022/05/05 02:12:36;;;;;;;;;10.00;9.00;;;;;15.65;52.96;101663.91;5006993;28;45322;-69
2022/05/05 02:15:06;;;;;;;;;9.33;7.67;;;;;15.60;53.30;101673.38;5019495;28;45224;-69
2022/05/05 02:17:32;;;;;;;;;10.00;10.00;;;;;15.51;53.18;101665.25;5020565;28;45487;-68
2022/05/05 02:20:00;;;;;;;;;12.67;11.00;;;;;15.09;53.21;101619.47;5019705;28;45707;-71
2022/05/05 02:22:26;;;;;;;;;13.00;11.00;;;;;15.41;53.31;101671.66;5017562;28;45903;-69
2022/05/05 02:24:51;;;;;;;;;12.67;10.67;;;;;15.36;53.63;101664.09;5001029;28;45326;-69
2022/05/05 02:27:16;;;;;;;;;11.33;10.33;;;;;15.36;54.12;101666.78;5019110;28;45381;-69
2022/05/05 02:29:42;;;;;;;;;9.67;9.67;;;;;15.31;54.28;101655.69;5001209;28;48341;-69
2022/05/05 02:32:08;;;;;;;;;11.00;8.33;;;;;15.33;54.19;101656.38;5019045;28;45553;-70
2022/05/05 02:34:33;;;;;;;;;19.33;16.00;;;;;15.35;54.25;101661.56;5019066;28;45504;-68
2022/05/05 02:39:43;;;;;;;;;15.67;15.67;;;;;15.23;54.85;101660.97;5018936;28;45518;-69
2022/05/05 02:42:08;;;;;;;;;12.33;11.33;;;;;15.15;55.35;101650.16;5018542;28;45544;-71
2022/05/05 02:44:33;;;;;;;;;14.00;10.67;;;;;15.24;55.35;101665.34;5004310;28;45405;-69
2022/05/05 02:47:00;;;;;;;;;14.67;13.67;;;;;15.18;55.53;101658.72;4999196;28;45261;-68
2022/05/05 02:49:27;;;;;;;;;14.33;11.67;;;;;15.19;55.84;101651.53;4998653;28;45812;-69
2022/05/05 02:51:53;;;;;;;;;16.00;16.00;;;;;14.37;55.95;101526.63;4987264;28;45649;-70
2022/05/05 02:57:03;;;;;;;;;19.00;14.00;;;;;15.07;55.89;101636.69;5018875;28;45583;-70
2022/05/05 02:59:29;;;;;;;;;9.00;7.67;;;;;14.71;56.27;101577.72;5018161;28;45759;-69
2022/05/05 03:01:54;;;;;;;;;15.67;14.67;;;;;15.09;55.86;101645.41;5000528;28;45492;-70
2022/05/05 03:04:19;;;;;;;;;14.67;14.67;;;;;14.55;56.31;101558.81;5018613;28;45195;-71
2022/05/05 03:06:45;;;;;;;;;14.67;14.00;;;;;14.38;56.39;101535.50;5000382;28;45450;-71
2022/05/05 03:09:10;;;;;;;;;17.00;15.00;;;;;14.40;56.86;101546.88;5018337;28;45599;-68
2022/05/05 03:11:36;;;;;;;;;14.00;13.33;;;;;15.02;56.76;101650.53;5018222;28;45263;-71
2022/05/05 03:14:01;;;;;;;;;15.33;15.33;;;;;14.68;56.91;101588.75;4990816;28;45294;-69
2022/05/05 03:16:26;;;;;;;;;15.00;15.00;;;;;15.11;56.87;101654.13;4998499;28;45605;-69
2022/05/05 03:18:52;;;;;;;;;18.67;16.33;;;;;14.43;56.87;101551.97;4996742;28;45647;-68
2022/05/05 03:21:17;;;;;;;;;14.33;12.33;;;;;14.49;57.24;101562.94;5003679;28;45340;-70
2022/05/05 03:23:42;;;;;;;;;13.33;12.33;;;;;15.07;57.24;101663.47;5018085;28;45491;-71
2022/05/05 03:26:08;;;;;;;;;14.33;14.33;;;;;15.08;57.17;101666.00;5018427;28;45215;-70
2022/05/05 03:28:33;;;;;;;;;15.33;13.33;;;;;14.99;56.69;101640.09;5016378;28;46485;-69
2022/05/05 03:30:58;;;;;;;;;13.00;12.67;;;;;14.87;57.32;101628.78;5017384;28;45337;-69
2022/05/05 03:33:24;;;;;;;;;12.00;12.00;;;;;14.89;57.50;101652.72;5017730;28;45316;-71
2022/05/05 03:35:49;;;;;;;;;19.33;16.00;;;;;14.76;57.93;101628.97;5016544;28;45391;-69
2022/05/05 03:38:14;;;;;;;;;16.67;15.00;;;;;14.85;58.03;101649.50;5017337;28;45971;-69
2022/05/05 03:40:41;;;;;;;;;16.67;14.67;;;;;14.93;57.61;101655.94;5017567;28;45254;-68
2022/05/05 03:43:06;;;;;;;;;16.67;13.67;;;;;14.93;57.64;101645.22;5015665;28;45231;-70
2022/05/05 03:45:32;;;;;;;;;13.00;11.33;;;;;15.02;57.51;101666.63;5016264;28;45566;-71
2022/05/05 03:47:58;;;;;;;;;13.67;13.33;;;;;14.86;57.75;101650.34;4999777;28;48306;-70
2022/05/05 03:50:23;;;;;;;;;12.67;12.00;;;;;14.71;58.29;101641.13;4999334;28;45573;-71
2022/05/05 03:52:48;;;;;;;;;15.33;14.67;;;;;14.84;58.46;101676.44;5017649;28;45221;-69
2022/05/05 03:55:14;;;;;;;;;17.33;13.33;;;;;14.50;58.53;101630.66;5017545;28;45222;-70
2022/05/05 03:57:39;;;;;;;;;9.33;9.33;;;;;14.76;58.71;101679.00;5017292;28;45886;-71
2022/05/05 04:00:05;;;;;;;;;15.00;15.00;;;;;14.73;59.09;101665.91;5017298;28;45259;-69
2022/05/05 04:02:31;;;;;;;;;18.33;16.33;;;;;14.86;58.32;101680.66;5017328;28;45516;-69
2022/05/05 04:04:56;;;;;;;;;17.00;14.67;;;;;14.76;58.24;101649.53;4999752;28;45547;-69
2022/05/05 04:07:22;;;;;;;;;15.00;11.67;;;;;14.77;58.23;101652.06;5017493;28;45366;-70
2022/05/05 04:09:47;;;;;;;;;12.00;12.00;;;;;14.80;58.16;101665.16;5017067;28;45435;-70
2022/05/05 04:12:12;;;;;;;;;14.00;11.00;;;;;14.50;57.89;101604.75;5017389;28;45425;-69
2022/05/05 04:14:38;;;;;;;;;17.00;17.00;;;;;14.88;58.11;101669.78;5017038;28;45200;-70
2022/05/05 04:17:04;;;;;;;;;14.00;13.00;;;;;14.86;58.09;101677.97;4999211;28;48294;-69
2022/05/05 04:19:29;;;;;;;;;14.00;14.00;;;;;14.88;57.93;101678.66;4999357;28;45444;-69
2022/05/05 04:21:55;;;;;;;;;17.00;14.33;;;;;14.81;57.90;101663.31;5017516;28;45238;-70
2022/05/05 04:24:20;;;;;;;;;15.33;13.00;;;;;14.79;57.90;101658.13;4995635;28;45354;-70
2022/05/05 04:26:46;;;;;;;;;14.67;13.67;;;;;14.95;57.78;101683.41;4997145;28;45643;-70
2022/05/05 04:29:12;;;;;;;;;14.67;14.00;;;;;14.81;57.77;101672.19;4996975;28;45556;-70
2022/05/05 04:31:39;;;;;;;;;12.67;12.67;;;;;14.91;57.67;101677.50;4997042;28;45498;-69
2022/05/05 04:34:05;;;;;;;;;13.67;11.67;;;;;14.79;57.69;101660.78;4979248;28;45552;-69
2022/05/05 04:36:40;;;;;;;;;13.00;11.00;;;;;14.31;57.64;101586.94;4996676;28;46635;-71
2022/05/05 04:39:06;;;;;;;;;14.00;13.33;;;;;15.01;57.70;101691.69;4998275;28;45520;-70
2022/05/05 04:41:32;;;;;;;;;14.67;10.67;;;;;15.03;57.74;101699.59;5014891;28;45499;-69
2022/05/05 04:43:57;;;;;;;;;15.00;11.33;;;;;14.89;57.67;101669.63;5003794;28;45480;-70
2022/05/05 04:46:23;;;;;;;;;14.33;14.33;;;;;15.05;57.39;101692.25;4997608;28;45349;-70
2022/05/05 04:48:48;;;;;;;;;16.00;15.00;;;;;15.00;57.91;101694.50;4995886;28;45735;-71
2022/05/05 04:51:14;;;;;;;;;18.00;16.00;;;;;15.02;57.98;101705.94;4999415;28;45487;-70
2022/05/05 04:53:41;;;;;;;;;17.00;17.00;;;;;14.87;58.30;101679.66;5017266;28;45535;-69
2022/05/05 04:56:09;;;;;;;;;21.33;19.67;;;;;15.02;58.06;101703.25;5016597;28;45770;-69
2022/05/05 04:58:36;;;;;;;;;19.33;15.00;;;;;14.93;58.25;101698.78;5016533;28;45332;-70
2022/05/05 05:01:02;;;;;;;;;21.33;17.33;;;;;14.58;58.51;101647.66;5031857;28;45655;-69
2022/05/05 05:03:39;;;;;;;;;24.67;20.33;;;;;14.85;58.87;101702.22;5016699;28;45276;-71
2022/05/05 05:06:06;;;;;;;;;19.33;17.67;;;;;14.77;59.00;101694.91;5016373;28;46058;-70
2022/05/05 05:08:33;;;;;;;;;26.00;19.33;;;;;14.21;58.95;101590.63;5016673;28;45525;-69
2022/05/05 05:10:59;;;;;;;;;20.33;19.00;;;;;14.19;59.47;101596.13;5016137;28;45484;-70
2022/05/05 05:13:24;;;;;;;;;20.67;19.00;;;;;14.63;60.21;101702.59;5001906;28;45599;-69
2022/05/05 05:15:50;;;;;;;;;23.00;21.00;;;;;14.51;60.09;101689.38;4996841;28;45785;-69
2022/05/05 05:18:15;;;;;;;;;21.33;21.00;;;;;14.74;60.35;101715.78;4981870;28;45533;-70
2022/05/05 05:20:40;;;;;;;;;31.67;28.67;;;;;14.74;60.13;101721.97;4995220;28;45274;-69
2022/05/05 05:23:06;;;;;;;;;22.33;18.67;;;;;14.82;60.35;101719.41;4996796;28;45457;-71
2022/05/05 05:25:31;;;;;;;;;26.00;25.00;;;;;14.85;60.18;101719.13;4998905;28;45518;-70
2022/05/05 05:27:57;;;;;;;;;27.67;21.33;;;;;14.73;60.15;101692.69;5000061;28;45477;-69
2022/05/05 05:30:23;;;;;;;;;27.67;23.67;;;;;15.00;60.19;101732.00;4979029;28;45217;-69
2022/05/05 05:32:48;;;;;;;;;28.33;26.00;;;;;14.77;60.23;101696.75;4996033;28;45322;-70
2022/05/05 05:35:14;;;;;;;;;22.67;21.67;;;;;14.53;60.06;101649.09;5016257;28;45470;-69
2022/05/05 05:37:39;;;;;;;;;23.00;22.00;;;;;14.94;60.40;101727.25;5016057;28;45425;-71
2022/05/05 05:40:05;;;;;;;;;21.00;21.00;;;;;14.86;60.66;101715.44;5015629;28;46037;-70
2022/05/05 05:42:31;;;;;;;;;27.00;21.67;;;;;15.00;60.95;101737.34;5016448;28;45253;-69
2022/05/05 05:44:57;;;;;;;;;32.67;27.00;;;;;14.98;60.73;101729.47;5019411;28;46066;-69
2022/05/05 05:47:22;;;;;;;;;28.67;27.33;;;;;14.51;60.73;101653.75;5019674;28;45461;-70
2022/05/05 05:49:48;;;;;;;;;28.33;23.67;;;;;15.01;60.93;101755.09;5019769;28;45347;-71
2022/05/05 05:52:13;;;;;;;;;31.00;26.67;;;;;15.07;60.88;101741.97;5017531;28;45353;-69
2022/05/05 05:54:38;;;;;;;;;21.33;20.33;;;;;15.00;60.65;101729.31;5019384;28;45552;-71
2022/05/05 05:57:04;;;;;;;;;31.33;31.00;;;;;14.90;60.40;101694.56;5019317;28;45265;-71
2022/05/05 05:59:30;;;;;;;;;31.00;29.00;;;;;15.18;60.55;101735.56;5019711;28;45337;-70
2022/05/05 06:04:39;;;;;;;;;28.67;23.33;;;;;15.28;60.38;101741.72;5019393;28;45675;-71
2022/05/05 06:07:04;;;;;;;;;35.33;29.67;;;;;15.31;60.49;101743.25;5016681;28;45583;-71
2022/05/05 06:09:30;;;;;;;;;31.00;27.33;;;;;15.19;60.29;101727.38;4999175;28;45413;-70
2022/05/05 06:11:55;;;;;;;;;33.67;27.33;;;;;15.26;60.14;101719.59;4999968;28;45631;-70
2022/05/05 06:14:20;;;;;;;;;26.33;22.33;;;;;15.47;59.96;101744.28;4999088;28;45554;-71
2022/05/05 06:16:46;;;;;;;;;33.33;27.00;;;;;15.49;59.78;101746.81;5016782;28;45286;-71
2022/05/05 06:19:11;;;;;;;;;26.00;24.33;;;;;15.27;59.72;101701.69;5019067;28;45148;-72
2022/05/05 06:21:36;;;;;;;;;27.00;26.67;;;;;14.72;59.75;101594.63;5019558;28;45209;-70
2022/05/05 06:24:03;;;;;;;;;24.33;18.33;;;;;15.42;59.72;101716.25;5001583;28;47540;-71
2022/05/05 06:26:29;;;;;;;;;26.67;25.33;;;;;15.70;59.28;101746.53;5019147;28;45458;-70
2022/05/05 06:28:57;;;;;;;;;26.00;24.33;;;;;15.64;59.37;101736.44;5017715;28;45412;-71
2022/05/05 06:31:23;;;;;;;;;25.67;22.33;;;;;15.82;59.08;101753.38;5019298;28;45439;-70
2022/05/05 06:33:49;;;;;;;;;28.00;23.67;;;;;15.20;59.29;101663.94;5000964;28;48450;-71
2022/05/05 06:36:15;;;;;;;;;25.33;24.67;;;;;15.82;59.08;101767.63;5018522;28;45563;-73
2022/05/05 06:38:41;;;;;;;;;30.00;25.00;;;;;15.80;58.98;101758.88;5017133;28;45529;-69
2022/05/05 06:41:08;;;;;;;;;28.33;27.33;;;;;15.73;59.06;101738.19;5019049;28;45230;-69
2022/05/05 06:43:33;;;;;;;;;32.67;27.00;;;;;14.96;58.80;101619.00;5018411;28;46102;-72
2022/05/05 06:45:59;;;;;;;;;31.33;27.00;;;;;15.92;58.77;101777.41;5018678;28;45412;-71
2022/05/05 06:48:24;;;;;;;;;30.67;27.33;;;;;15.88;58.72;101755.44;5034019;28;45301;-71
2022/05/05 06:50:49;;;;;;;;;29.67;29.67;;;;;16.00;58.50;101761.38;5018166;28;45514;-70
2022/05/05 06:53:15;;;;;;;;;28.33;25.00;;;;;16.06;58.45;101760.78;5017946;28;46111;-73
2022/05/05 06:55:40;;;;;;;;;28.67;24.67;;;;;16.17;58.53;101778.47;5018292;28;45318;-77
2022/05/05 06:58:06;;;;;;;;;31.33;27.67;;;;;15.88;58.28;101733.97;4999126;28;45438;-74
2022/05/05 07:03:15;;;;;;;;;27.00;25.33;;;;;16.17;58.54;101775.78;5017333;28;45720;-70
2022/05/05 07:05:41;;;;;;;;;26.00;23.00;;;;;16.20;58.33;101775.47;5018248;28;45309;-74
2022/05/05 07:08:07;;;;;;;;;23.67;23.33;;;;;16.05;58.19;101757.25;5009294;28;45323;-72
2022/05/05 07:13:16;;;;;;;;;30.67;25.33;;;;;16.30;58.34;101784.28;5006677;28;45546;-71
2022/05/05 07:15:42;;;;;;;;;33.33;28.00;;;;;16.32;58.53;101796.53;5001055;28;45620;-73
2022/05/05 07:18:07;;;;;;;;;31.00;26.67;;;;;16.28;58.31;101792.50;4998472;28;45239;-69
2022/05/05 07:20:33;;;;;;;;;28.67;24.00;;;;;15.63;58.12;101692.72;4980702;28;45588;-72
2022/05/05 07:22:58;;;;;;;;;27.33;27.00;;;;;16.14;58.14;101771.56;4980078;28;47836;-71
2022/05/05 07:25:24;;;;;;;;;27.00;25.33;;;;;16.16;58.58;101785.69;4988325;28;45513;-70
2022/05/05 07:27:49;;;;;;;;;33.33;27.00;;;;;16.22;58.68;101798.50;5004640;28;45361;-71
2022/05/05 07:30:15;;;;;;;;;29.33;25.00;;;;;16.26;58.57;101807.06;4998628;28;45174;-72
2022/05/05 07:32:41;;;;;;;;;30.67;25.33;;;;;16.34;58.45;101804.44;4996529;28;47494;-71
2022/05/05 07:35:08;;;;;;;;;29.67;28.67;;;;;16.19;58.26;101793.41;4998241;28;45497;-70
2022/05/05 07:37:34;;;;;;;;;28.00;26.00;;;;;16.11;58.04;101772.72;4996582;28;45239;-72
2022/05/05 07:40:00;;;;;;;;;27.00;24.33;;;;;16.24;58.00;101809.91;4980932;28;45419;-72
2022/05/05 07:42:25;;;;;;;;;28.33;22.33;;;;;16.21;58.20;101801.31;5015995;28;45388;-71
2022/05/05 07:44:51;;;;;;;;;29.00;25.33;;;;;16.12;58.17;101792.34;5016691;28;45381;-73
2022/05/05 07:47:16;;;;;;;;;26.67;22.67;;;;;16.24;58.29;101809.06;4999689;28;45428;-72
2022/05/05 07:49:42;;;;;;;;;33.00;28.67;;;;;16.23;57.96;101799.34;5018009;28;45479;-71
2022/05/05 07:52:07;;;;;;;;;24.67;22.00;;;;;16.43;57.63;101819.63;5017433;28;45651;-72
2022/05/05 07:54:38;;;;;;;;;22.00;21.67;;;;;16.48;56.94;101801.19;5015673;28;45454;-71
2022/05/05 07:57:06;;;;;;;;;27.00;25.33;;;;;16.61;56.84;101782.81;5015787;28;45435;-71
2022/05/05 07:59:31;;;;;;;;;28.33;22.33;;;;;16.90;56.12;101795.13;5016474;28;45200;-70
2022/05/05 08:01:57;;;;;;;;;28.00;25.00;;;;;17.22;55.76;101814.09;4998435;28;47264;-72
2022/05/05 08:04:22;;;;;;;;;32.00;28.67;;;;;17.47;55.33;101811.50;4998219;28;45765;-71
2022/05/05 08:06:48;;;;;;;;;31.67;21.33;;;;;17.80;53.99;101815.13;5017475;28;45476;-69
2022/05/05 08:09:13;;;;;;;;;31.00;27.67;;;;;17.92;53.43;101797.66;4999689;28;45417;-71
2022/05/05 08:11:39;;;;;;;;;28.00;27.33;;;;;17.96;52.42;101755.13;4998957;28;46993;-69
2022/05/05 08:14:05;;;;;;;;;32.33;27.67;;;;;18.50;51.99;101808.28;4999209;28;46246;-70
2022/05/05 08:16:31;;;;;;;;;28.67;25.33;;;;;18.69;51.50;101790.09;5017236;28;45289;-72
2022/05/05 08:18:57;;;;;;;;;23.00;23.00;;;;;18.64;50.57;101723.28;5016130;28;45479;-70
2022/05/05 08:21:22;;;;;;;;;31.33;26.67;;;;;19.39;49.72;101822.53;5017031;28;45773;-70
2022/05/05 08:23:47;;;;;;;;;23.00;20.33;;;;;19.39;49.04;101787.47;5016382;28;45455;-72
2022/05/05 08:28:58;;;;;;;;;26.00;21.67;;;;;20.18;47.77;101823.28;5017444;28;45223;-71
2022/05/05 08:31:23;;;;;;;;;31.00;26.33;;;;;20.26;47.66;101813.25;5015747;28;48389;-72
2022/05/05 08:33:49;;;;;;;;;29.33;26.00;;;;;20.47;47.25;101828.81;5016554;28;45517;-71
2022/05/05 08:36:15;;;;;;;;;31.67;27.00;;;;;20.24;45.80;101704.59;5017515;28;45447;-71
2022/05/05 08:38:40;;;;;;;;;26.67;23.67;;;;;21.19;44.76;101793.06;5017075;28;45494;-71
2022/05/05 08:41:11;;;;;;;;;31.33;25.00;;;;;21.59;43.86;101805.22;4998989;28;48426;-70
2022/05/05 08:43:36;;;;;;;;;24.33;23.33;;;;;21.99;43.11;101802.94;4998658;28;45392;-70
2022/05/05 08:46:03;;;;;;;;;19.00;19.00;;;;;22.28;41.79;101827.25;5008187;28;45394;-71
2022/05/05 08:48:33;;;;;;;;;21.33;18.67;;;;;22.43;41.61;101824.47;4996138;28;45331;-71
2022/05/05 08:51:00;;;;;;;;;25.00;22.33;;;;;22.77;40.51;101840.75;4996697;28;46473;-69
2022/05/05 08:53:35;;;;;;;;;24.33;22.33;;;;;22.42;39.06;101736.88;4987355;28;45972;-70
2022/05/05 08:56:01;;;;;;;;;17.33;17.00;;;;;22.81;39.70;101818.66;5016424;28;45189;-70
2022/05/05 08:58:28;;;;;;;;;21.00;21.00;;;;;22.56;39.66;101800.16;5027686;28;45619;-69
2022/05/05 09:00:57;;;;;;;;;22.00;19.67;;;;;22.46;39.78;101829.47;5015888;28;46416;-71
2022/05/05 09:03:23;;;;;;;;;21.33;19.67;;;;;22.42;39.91;101833.59;5016186;28;45368;-73
2022/05/05 09:05:51;;;;;;;;;20.33;19.00;;;;;22.22;40.55;101816.31;5015466;28;45571;-70
2022/05/05 09:08:30;;;;;;;;;23.33;21.67;;;;;22.37;40.55;101819.78;5014207;28;45640;-71
2022/05/05 09:11:01;;;;;;;;;25.67;20.33;;;;;22.52;41.09;101836.81;5014737;28;45558;-71
2022/05/05 09:13:30;;;;;;;;;27.33;24.67;;;;;22.56;40.91;101827.25;5015890;28;45524;-70
2022/05/05 09:15:55;;;;;;;;;25.00;23.67;;;;;22.58;40.30;101836.03;5014944;28;45519;-69
2022/05/05 09:18:28;;;;;;;;;23.67;20.33;;;;;22.48;40.26;101843.66;5015794;28;45431;-70
2022/05/05 09:20:55;;;;;;;;;24.67;20.67;;;;;22.26;40.61;101840.16;5013693;28;46698;-70
2022/05/05 09:23:36;;;;;;;;;23.67;23.33;;;;;21.95;40.94;101842.28;5013594;28;45675;-70
2022/05/05 09:26:04;;;;;;;;;17.33;17.33;;;;;21.82;41.14;101813.19;4997963;28;45491;-71
2022/05/05 09:28:31;;;;;;;;;12.33;12.33;;;;;22.32;40.68;101841.22;4998683;28;45492;-71
2022/05/05 09:31:08;;;;;;;;;15.00;14.33;;;;;22.78;39.61;101811.78;5013640;28;47892;-70
2022/05/05 09:33:33;;;;;;;;;16.67;14.00;;;;;23.70;37.82;101826.91;5012735;28;45583;-70
2022/05/05 09:36:02;;;;;;;;;21.50;18.00;;;;;24.58;36.44;101826.59;5013722;28;45481;-71
2022/05/05 09:38:47;;;;;;;;;15.67;13.67;;;;;24.84;35.00;101836.66;5016636;28;46052;-71
2022/05/05 09:41:13;;;;;;;;;11.00;10.67;;;;;24.83;35.60;101825.97;5010352;28;46643;-72
2022/05/05 09:43:38;;;;;;;;;16.33;15.00;;;;;24.84;35.18;101836.66;5014403;28;45979;-71
2022/05/05 09:46:22;;;;;;;;;18.33;15.67;;;;;24.69;35.52;101829.75;5011120;28;45526;-78
2022/05/05 09:48:48;;;;;;;;;14.33;13.67;;;;;24.33;35.84;101817.41;4985298;28;45480;-73
2022/05/05 09:51:18;;;;;;;;;13.67;13.00;;;;;23.98;35.71;101820.28;5012010;28;45501;-71
2022/05/05 09:59:42;;;;;;;;;12.33;11.33;;;;;22.98;37.01;101844.47;4939125;28;45574;-78
2022/05/05 10:02:17;;;;;;;;;8.33;7.67;;;;;22.72;37.05;101845.09;4936018;28;45498;-76
2022/05/05 10:04:54;;;;;;;;;7.33;7.33;;;;;22.38;37.58;101808.75;4979254;28;45749;-70
2022/05/05 10:07:21;;;;;;;;;13.33;10.33;;;;;22.25;37.90;101805.13;5010030;28;45598;-75
2022/05/05 10:09:53;;;;;;;;;11.00;11.00;;;;;21.81;37.93;101728.44;5007513;28;45546;-77
2022/05/05 10:12:21;;;;;;;;;10.33;10.33;;;;;22.06;37.83;101796.63;5010118;28;47864;-74
2022/05/05 10:14:50;;;;;;;;;5.33;5.33;;;;;22.29;38.38;101844.34;4996125;28;45322;-72
2022/05/05 10:17:17;;;;;;;;;13.00;11.67;;;;;22.11;37.85;101829.38;4996314;28;45543;-74
2022/05/05 10:19:51;;;;;;;;;10.00;9.33;;;;;21.72;38.11;101783.75;4999550;28;45448;-75
2022/05/05 10:22:23;;;;;;;;;10.67;9.00;;;;;21.73;38.09;101807.06;5000235;28;47771;-74
2022/05/05 10:25:00;;;;;;;;;13.33;12.00;;;;;21.13;37.87;101734.31;4996122;28;45338;-68
2022/05/05 10:27:25;;;;;;;;;10.33;9.00;;;;;21.32;37.92;101777.03;5013814;28;45552;-72
2022/05/05 10:29:54;;;;;;;;;10.67;10.33;;;;;21.54;37.97;101818.50;5001493;28;45398;-71
2022/05/05 10:32:21;;;;;;;;;12.33;11.33;;;;;21.60;37.81;101839.38;5010794;28;46493;-71
2022/05/05 10:34:54;;;;;;;;;8.67;8.67;;;;;21.48;38.16;101841.75;4981374;28;45981;-74
2022/05/05 10:37:30;;;;;;;;;9.33;8.33;;;;;21.29;38.86;101839.63;4999439;28;45528;-69
2022/05/05 10:40:06;;;;;;;;;12.33;10.00;;;;;21.15;39.40;101824.22;5003792;28;45378;-70
2022/05/05 10:42:32;;;;;;;;;9.33;9.33;;;;;21.16;39.46;101837.53;5004349;28;45603;-70
2022/05/05 10:45:14;;;;;;;;;11.67;10.33;;;;;21.08;39.59;101839.50;5018527;28;45294;-71
2022/05/05 10:47:55;;;;;;;;;12.33;11.67;;;;;21.00;39.72;101842.28;5018577;28;45385;-67
2022/05/05 10:50:56;;;;;;;;;13.33;8.33;;;;;20.87;39.80;101843.78;5011216;28;45270;-71
2022/05/05 10:53:25;;;;;;;;;7.33;7.33;;;;;20.88;39.67;101845.47;5007805;28;48326;-71
2022/05/05 10:55:51;;;;;;;;;11.00;10.00;;;;;20.27;39.53;101739.31;5017481;28;45415;-77
2022/05/05 10:58:53;;;;;;;;;10.67;9.00;;;;;20.92;39.10;101835.97;5018724;28;45432;-80
2022/05/05 11:01:22;;;;;;;;;18.00;17.00;;;;;20.95;38.85;101819.38;5008861;28;45402;-69
2022/05/05 11:04:09;;;;;;;;;11.33;9.33;;;;;20.92;38.73;101833.25;5014205;28;45458;-70
2022/05/05 11:06:36;;;;;;;;;12.33;11.33;;;;;20.86;38.85;101841.28;5003120;28;45630;-70
2022/05/05 11:09:02;;;;;;;;;11.00;11.00;;;;;20.12;39.27;101724.09;5018030;28;45471;-70
2022/05/05 11:11:42;;;;;;;;;8.00;8.00;;;;;20.67;39.52;101825.59;5014707;28;45499;-71
2022/05/05 11:22:58;;;;;;;;;7.67;7.67;;;;;20.66;39.55;101808.53;5012486;28;45235;-71
2022/05/05 11:25:24;;;;;;;;;9.67;7.33;;;;;20.53;38.52;101775.91;5001212;28;46196;-70
2022/05/05 11:27:56;;;;;;;;;8.00;6.67;;;;;20.35;38.33;101752.75;5017817;28;45546;-70
2022/05/05 11:30:22;;;;;;;;;8.67;7.67;;;;;20.81;38.28;101822.88;5017246;28;45226;-70
2022/05/05 11:32:48;;;;;;;;;7.67;6.00;;;;;20.74;38.53;101816.56;4999336;28;45212;-71
2022/05/05 11:35:21;;;;;;;;;5.33;5.33;;;;;20.65;38.76;101817.66;4995347;28;47655;-71
2022/05/05 11:37:47;;;;;;;;;6.67;4.67;;;;;20.50;39.38;101819.50;5012780;28;45498;-70
2022/05/05 11:40:13;;;;;;;;;6.00;6.00;;;;;20.35;39.19;101809.47;4979127;28;45208;-69
2022/05/05 11:45:29;;;;;;;;;7.67;7.67;;;;;19.43;39.38;101702.53;5000625;28;45852;-67
2022/05/05 11:47:55;;;;;;;;;7.33;5.33;;;;;20.11;39.83;101819.63;4998798;28;45391;-70
2022/05/05 11:50:20;;;;;;;;;9.67;7.33;;;;;20.20;39.72;101813.97;4982853;28;45407;-71
2022/05/05 11:52:46;;;;;;;;;6.33;6.33;;;;;20.14;39.46;101803.91;4997356;28;45481;-71